KEMP/EMP METAR and TAF weather

Enter ICAO airport designator
Station Type Date Time Source
KEMP METAR 2019/10/18 05:53 UTC NOAA

KEMP 180553Z AUTO 17012KT 10SM CLR 12/08 A2981 RMK AO2 SLP094 T01170083 10172 20111 402280050 58007


Station Type Date Time Source
KEMP Decoded METAR 2019/10/18 05:53 UTC NOAA

EMPORIA MUNICIPAL AIRPORT, KS, United States (KEMP) 38-20N 96-12W 367M
Oct 18, 2019 - 01:53 AM EDT / 2019.10.18 0553 UTC
Wind: from the S (170 degrees) at 14 MPH (12 KT):0
Visibility: 10 mile(s):0
Sky conditions: clear
Temperature: 53.1 F (11.7 C)
Dew Point: 46.9 F (8.3 C)
Relative Humidity: 79%
Pressure (altimeter): 29.81 in. Hg (1009 hPa)
Pressure tendency: 0.02 inches (0.7 hPa) lower than three hours ago
ob: KEMP 180553Z AUTO 17012KT 10SM CLR 12/08 A2981 RMK AO2 SLP094 T01170083 10172 20111 402280050 58007
cycle: 6

Station Type Date Time Source
KEMP TAF UTC NOAA

Error!

Example: see airport list